sensor_id;sensor_type;location;lat;lon;timestamp;P1;durP1;ratioP1;P2;durP2;ratioP2
77430;SDS011;66498;48.564;19.272;2023-04-24T00:01:15;19.38;;;13.02;;
77430;SDS011;66498;48.564;19.272;2023-04-24T00:03:42;24.60;;;14.10;;
77430;SDS011;66498;48.564;19.272;2023-04-24T00:06:07;16.70;;;12.10;;
77430;SDS011;66498;48.564;19.272;2023-04-24T00:08:34;14.15;;;10.70;;
77430;SDS011;66498;48.564;19.272;2023-04-24T00:11:00;14.38;;;10.95;;
77430;SDS011;66498;48.564;19.272;2023-04-24T00:13:26;14.32;;;12.00;;
77430;SDS011;66498;48.564;19.272;2023-04-24T00:15:53;16.20;;;12.45;;
77430;SDS011;66498;48.564;19.272;2023-04-24T00:18:19;17.70;;;12.13;;
77430;SDS011;66498;48.564;19.272;2023-04-24T00:20:45;14.27;;;11.88;;
77430;SDS011;66498;48.564;19.272;2023-04-24T00:23:11;15.77;;;12.18;;
77430;SDS011;66498;48.564;19.272;2023-04-24T00:25:37;16.35;;;12.35;;
77430;SDS011;66498;48.564;19.272;2023-04-24T00:28:03;18.27;;;12.18;;
77430;SDS011;66498;48.564;19.272;2023-04-24T00:30:28;19.27;;;11.93;;
77430;SDS011;66498;48.564;19.272;2023-04-24T00:32:54;14.70;;;10.82;;
77430;SDS011;66498;48.564;19.272;2023-04-24T00:35:19;15.02;;;10.88;;
77430;SDS011;66498;48.564;19.272;2023-04-24T00:37:45;16.98;;;10.32;;
77430;SDS011;66498;48.564;19.272;2023-04-24T00:40:11;17.73;;;11.35;;
77430;SDS011;66498;48.564;19.272;2023-04-24T00:42:36;14.90;;;10.95;;
77430;SDS011;66498;48.564;19.272;2023-04-24T00:45:02;16.40;;;10.50;;
77430;SDS011;66498;48.564;19.272;2023-04-24T00:47:29;20.33;;;12.55;;
77430;SDS011;66498;48.564;19.272;2023-04-24T00:49:55;15.95;;;11.90;;
77430;SDS011;66498;48.564;19.272;2023-04-24T00:52:20;14.77;;;11.98;;
77430;SDS011;66498;48.564;19.272;2023-04-24T00:54:49;15.63;;;12.23;;
77430;SDS011;66498;48.564;19.272;2023-04-24T00:57:15;18.00;;;12.68;;
77430;SDS011;66498;48.564;19.272;2023-04-24T00:59:41;21.10;;;11.93;;
77430;SDS011;66498;48.564;19.272;2023-04-24T01:02:07;15.95;;;11.90;;
77430;SDS011;66498;48.564;19.272;2023-04-24T01:04:34;17.38;;;11.63;;
77430;SDS011;66498;48.564;19.272;2023-04-24T01:07:01;23.27;;;12.60;;
77430;SDS011;66498;48.564;19.272;2023-04-24T01:09:26;17.00;;;13.20;;
77430;SDS011;66498;48.564;19.272;2023-04-24T01:11:52;15.35;;;11.02;;
77430;SDS011;66498;48.564;19.272;2023-04-24T01:14:18;27.70;;;11.23;;
77430;SDS011;66498;48.564;19.272;2023-04-24T01:16:43;24.90;;;11.85;;
77430;SDS011;66498;48.564;19.272;2023-04-24T01:19:09;33.05;;;11.80;;
77430;SDS011;66498;48.564;19.272;2023-04-24T01:21:36;17.35;;;11.07;;
77430;SDS011;66498;48.564;19.272;2023-04-24T01:24:03;26.67;;;12.13;;
77430;SDS011;66498;48.564;19.272;2023-04-24T01:26:30;16.38;;;12.25;;
77430;SDS011;66498;48.564;19.272;2023-04-24T01:28:55;27.02;;;12.20;;
77430;SDS011;66498;48.564;19.272;2023-04-24T01:31:21;20.08;;;12.13;;
77430;SDS011;66498;48.564;19.272;2023-04-24T01:33:47;29.58;;;12.32;;
77430;SDS011;66498;48.564;19.272;2023-04-24T01:36:13;29.90;;;12.38;;
77430;SDS011;66498;48.564;19.272;2023-04-24T01:38:38;22.98;;;11.65;;
77430;SDS011;66498;48.564;19.272;2023-04-24T01:41:04;29.77;;;11.98;;
77430;SDS011;66498;48.564;19.272;2023-04-24T01:43:29;29.60;;;12.40;;
77430;SDS011;66498;48.564;19.272;2023-04-24T01:45:55;30.70;;;12.18;;
77430;SDS011;66498;48.564;19.272;2023-04-24T01:48:21;22.30;;;12.57;;
77430;SDS011;66498;48.564;19.272;2023-04-24T01:50:47;23.95;;;11.68;;
77430;SDS011;66498;48.564;19.272;2023-04-24T01:53:12;19.08;;;12.05;;
77430;SDS011;66498;48.564;19.272;2023-04-24T01:55:38;20.52;;;12.63;;
77430;SDS011;66498;48.564;19.272;2023-04-24T01:58:03;18.75;;;12.35;;
77430;SDS011;66498;48.564;19.272;2023-04-24T02:00:29;17.92;;;11.77;;
77430;SDS011;66498;48.564;19.272;2023-04-24T02:02:55;16.65;;;12.10;;
77430;SDS011;66498;48.564;19.272;2023-04-24T02:05:20;18.42;;;11.52;;
77430;SDS011;66498;48.564;19.272;2023-04-24T02:07:46;16.15;;;12.27;;
77430;SDS011;66498;48.564;19.272;2023-04-24T02:10:11;14.98;;;11.57;;
77430;SDS011;66498;48.564;19.272;2023-04-24T02:12:37;16.95;;;11.52;;
77430;SDS011;66498;48.564;19.272;2023-04-24T02:15:03;18.27;;;12.73;;
77430;SDS011;66498;48.564;19.272;2023-04-24T02:17:29;16.58;;;12.82;;
77430;SDS011;66498;48.564;19.272;2023-04-24T02:19:55;19.88;;;12.73;;
77430;SDS011;66498;48.564;19.272;2023-04-24T02:22:21;15.63;;;12.60;;
77430;SDS011;66498;48.564;19.272;2023-04-24T02:24:46;15.65;;;12.18;;
77430;SDS011;66498;48.564;19.272;2023-04-24T02:27:12;18.40;;;11.57;;
77430;SDS011;66498;48.564;19.272;2023-04-24T02:29:37;13.32;;;11.15;;
77430;SDS011;66498;48.564;19.272;2023-04-24T02:32:03;17.77;;;11.65;;
77430;SDS011;66498;48.564;19.272;2023-04-24T02:34:28;18.27;;;11.75;;
77430;SDS011;66498;48.564;19.272;2023-04-24T02:36:54;19.52;;;12.23;;
77430;SDS011;66498;48.564;19.272;2023-04-24T02:39:20;15.82;;;11.50;;
77430;SDS011;66498;48.564;19.272;2023-04-24T02:41:45;17.92;;;11.60;;
77430;SDS011;66498;48.564;19.272;2023-04-24T02:44:11;19.30;;;13.07;;
77430;SDS011;66498;48.564;19.272;2023-04-24T02:46:36;18.85;;;12.18;;
77430;SDS011;66498;48.564;19.272;2023-04-24T02:49:02;17.02;;;11.95;;
77430;SDS011;66498;48.564;19.272;2023-04-24T02:51:27;22.80;;;12.82;;
77430;SDS011;66498;48.564;19.272;2023-04-24T02:53:53;15.23;;;11.68;;
77430;SDS011;66498;48.564;19.272;2023-04-24T02:56:19;18.63;;;12.18;;
77430;SDS011;66498;48.564;19.272;2023-04-24T02:58:44;18.40;;;11.73;;
77430;SDS011;66498;48.564;19.272;2023-04-24T03:01:10;15.02;;;12.00;;
77430;SDS011;66498;48.564;19.272;2023-04-24T03:03:36;18.45;;;12.73;;
77430;SDS011;66498;48.564;19.272;2023-04-24T03:06:03;16.92;;;12.25;;
77430;SDS011;66498;48.564;19.272;2023-04-24T03:08:30;21.27;;;12.68;;
77430;SDS011;66498;48.564;19.272;2023-04-24T03:10:56;19.30;;;12.82;;
77430;SDS011;66498;48.564;19.272;2023-04-24T03:13:22;16.13;;;12.23;;
77430;SDS011;66498;48.564;19.272;2023-04-24T03:15:47;19.25;;;13.10;;
77430;SDS011;66498;48.564;19.272;2023-04-24T03:18:13;19.80;;;13.75;;
77430;SDS011;66498;48.564;19.272;2023-04-24T03:20:39;18.20;;;13.70;;
77430;SDS011;66498;48.564;19.272;2023-04-24T03:23:05;18.00;;;14.02;;
77430;SDS011;66498;48.564;19.272;2023-04-24T03:25:30;19.42;;;13.73;;
77430;SDS011;66498;48.564;19.272;2023-04-24T03:27:56;18.67;;;14.02;;
77430;SDS011;66498;48.564;19.272;2023-04-24T03:30:22;23.08;;;14.80;;
77430;SDS011;66498;48.564;19.272;2023-04-24T03:32:47;20.17;;;14.23;;
77430;SDS011;66498;48.564;19.272;2023-04-24T03:35:13;21.77;;;13.32;;
77430;SDS011;66498;48.564;19.272;2023-04-24T03:37:38;18.63;;;12.85;;
77430;SDS011;66498;48.564;19.272;2023-04-24T03:40:04;22.80;;;12.55;;
77430;SDS011;66498;48.564;19.272;2023-04-24T03:42:39;17.13;;;13.07;;
77430;SDS011;66498;48.564;19.272;2023-04-24T03:45:04;17.90;;;13.40;;
77430;SDS011;66498;48.564;19.272;2023-04-24T03:47:31;18.13;;;14.05;;
77430;SDS011;66498;48.564;19.272;2023-04-24T03:49:56;17.38;;;14.00;;
77430;SDS011;66498;48.564;19.272;2023-04-24T03:52:22;16.42;;;13.20;;
77430;SDS011;66498;48.564;19.272;2023-04-24T03:54:47;18.02;;;13.88;;
77430;SDS011;66498;48.564;19.272;2023-04-24T03:57:12;19.50;;;14.40;;
77430;SDS011;66498;48.564;19.272;2023-04-24T03:59:38;19.88;;;14.70;;
77430;SDS011;66498;48.564;19.272;2023-04-24T04:02:03;20.20;;;14.85;;
77430;SDS011;66498;48.564;19.272;2023-04-24T04:04:29;23.25;;;14.75;;
77430;SDS011;66498;48.564;19.272;2023-04-24T04:06:55;21.45;;;13.95;;
77430;SDS011;66498;48.564;19.272;2023-04-24T04:09:20;20.20;;;14.43;;
77430;SDS011;66498;48.564;19.272;2023-04-24T04:11:46;19.17;;;13.73;;
77430;SDS011;66498;48.564;19.272;2023-04-24T04:14:11;18.80;;;14.38;;
77430;SDS011;66498;48.564;19.272;2023-04-24T04:16:37;20.20;;;14.50;;
77430;SDS011;66498;48.564;19.272;2023-04-24T04:19:03;21.38;;;15.13;;
77430;SDS011;66498;48.564;19.272;2023-04-24T04:21:28;19.77;;;15.02;;
77430;SDS011;66498;48.564;19.272;2023-04-24T04:23:55;23.35;;;14.75;;
77430;SDS011;66498;48.564;19.272;2023-04-24T04:26:21;21.70;;;14.35;;
77430;SDS011;66498;48.564;19.272;2023-04-24T04:28:50;19.75;;;13.15;;
77430;SDS011;66498;48.564;19.272;2023-04-24T04:31:16;17.83;;;14.27;;
77430;SDS011;66498;48.564;19.272;2023-04-24T04:33:42;19.67;;;14.70;;
77430;SDS011;66498;48.564;19.272;2023-04-24T04:36:07;21.10;;;16.23;;
77430;SDS011;66498;48.564;19.272;2023-04-24T04:38:34;21.17;;;15.30;;
77430;SDS011;66498;48.564;19.272;2023-04-24T04:41:00;23.52;;;15.55;;
77430;SDS011;66498;48.564;19.272;2023-04-24T04:43:25;20.48;;;14.00;;
77430;SDS011;66498;48.564;19.272;2023-04-24T04:45:54;17.55;;;12.93;;
77430;SDS011;66498;48.564;19.272;2023-04-24T04:48:21;17.65;;;13.77;;
77430;SDS011;66498;48.564;19.272;2023-04-24T04:50:47;23.35;;;14.57;;
77430;SDS011;66498;48.564;19.272;2023-04-24T04:53:12;21.13;;;15.02;;
77430;SDS011;66498;48.564;19.272;2023-04-24T04:55:38;21.50;;;13.68;;
77430;SDS011;66498;48.564;19.272;2023-04-24T04:58:03;21.48;;;13.70;;
77430;SDS011;66498;48.564;19.272;2023-04-24T05:00:29;21.27;;;14.00;;
77430;SDS011;66498;48.564;19.272;2023-04-24T05:03:01;20.00;;;14.27;;
77430;SDS011;66498;48.564;19.272;2023-04-24T05:05:27;24.48;;;14.93;;
77430;SDS011;66498;48.564;19.272;2023-04-24T05:07:53;23.08;;;14.98;;
77430;SDS011;66498;48.564;19.272;2023-04-24T05:10:19;20.05;;;15.32;;
77430;SDS011;66498;48.564;19.272;2023-04-24T05:12:44;21.38;;;13.15;;
77430;SDS011;66498;48.564;19.272;2023-04-24T05:15:10;20.15;;;12.98;;
77430;SDS011;66498;48.564;19.272;2023-04-24T05:17:38;21.48;;;14.45;;
77430;SDS011;66498;48.564;19.272;2023-04-24T05:20:06;18.42;;;13.63;;
77430;SDS011;66498;48.564;19.272;2023-04-24T05:22:33;22.13;;;15.25;;
77430;SDS011;66498;48.564;19.272;2023-04-24T05:24:58;22.00;;;15.80;;
77430;SDS011;66498;48.564;19.272;2023-04-24T05:27:24;18.33;;;13.90;;
77430;SDS011;66498;48.564;19.272;2023-04-24T05:29:51;19.95;;;14.23;;
77430;SDS011;66498;48.564;19.272;2023-04-24T05:32:16;20.52;;;16.27;;
77430;SDS011;66498;48.564;19.272;2023-04-24T05:34:42;21.40;;;14.43;;
77430;SDS011;66498;48.564;19.272;2023-04-24T05:37:07;19.98;;;15.15;;
77430;SDS011;66498;48.564;19.272;2023-04-24T05:39:35;19.92;;;14.80;;
77430;SDS011;66498;48.564;19.272;2023-04-24T05:42:01;22.13;;;15.23;;
77430;SDS011;66498;48.564;19.272;2023-04-24T05:44:28;18.63;;;13.95;;
77430;SDS011;66498;48.564;19.272;2023-04-24T05:46:53;17.90;;;12.57;;
77430;SDS011;66498;48.564;19.272;2023-04-24T05:49:20;19.35;;;13.85;;
77430;SDS011;66498;48.564;19.272;2023-04-24T05:51:47;22.08;;;16.35;;
77430;SDS011;66498;48.564;19.272;2023-04-24T05:54:13;19.65;;;15.32;;
77430;SDS011;66498;48.564;19.272;2023-04-24T05:56:39;20.35;;;15.02;;
77430;SDS011;66498;48.564;19.272;2023-04-24T05:59:05;17.52;;;14.07;;
77430;SDS011;66498;48.564;19.272;2023-04-24T06:01:31;17.45;;;12.90;;
77430;SDS011;66498;48.564;19.272;2023-04-24T06:03:56;20.90;;;16.58;;
77430;SDS011;66498;48.564;19.272;2023-04-24T06:06:23;23.55;;;14.90;;
77430;SDS011;66498;48.564;19.272;2023-04-24T06:08:49;21.92;;;13.63;;
77430;SDS011;66498;48.564;19.272;2023-04-24T06:11:15;19.80;;;13.60;;
77430;SDS011;66498;48.564;19.272;2023-04-24T06:13:40;17.27;;;13.10;;
77430;SDS011;66498;48.564;19.272;2023-04-24T06:16:06;20.80;;;12.60;;
77430;SDS011;66498;48.564;19.272;2023-04-24T06:18:32;18.48;;;12.40;;
77430;SDS011;66498;48.564;19.272;2023-04-24T06:20:57;20.30;;;13.90;;
77430;SDS011;66498;48.564;19.272;2023-04-24T06:23:23;24.40;;;14.45;;
77430;SDS011;66498;48.564;19.272;2023-04-24T06:25:48;18.27;;;12.80;;
77430;SDS011;66498;48.564;19.272;2023-04-24T06:28:15;16.05;;;11.68;;
77430;SDS011;66498;48.564;19.272;2023-04-24T06:30:40;16.45;;;12.05;;
77430;SDS011;66498;48.564;19.272;2023-04-24T06:33:06;16.13;;;11.50;;
77430;SDS011;66498;48.564;19.272;2023-04-24T06:35:31;20.05;;;12.50;;
77430;SDS011;66498;48.564;19.272;2023-04-24T06:37:57;17.48;;;12.32;;
77430;SDS011;66498;48.564;19.272;2023-04-24T06:40:22;17.92;;;12.35;;
77430;SDS011;66498;48.564;19.272;2023-04-24T06:42:48;22.85;;;13.80;;
77430;SDS011;66498;48.564;19.272;2023-04-24T06:45:13;29.63;;;13.70;;
77430;SDS011;66498;48.564;19.272;2023-04-24T06:47:39;15.65;;;11.82;;
77430;SDS011;66498;48.564;19.272;2023-04-24T06:50:05;20.23;;;13.18;;
77430;SDS011;66498;48.564;19.272;2023-04-24T06:52:31;20.45;;;14.75;;
77430;SDS011;66498;48.564;19.272;2023-04-24T06:54:59;25.25;;;14.32;;
77430;SDS011;66498;48.564;19.272;2023-04-24T06:57:27;21.33;;;14.88;;
77430;SDS011;66498;48.564;19.272;2023-04-24T06:59:52;18.05;;;12.07;;
77430;SDS011;66498;48.564;19.272;2023-04-24T07:02:23;19.20;;;13.70;;
77430;SDS011;66498;48.564;19.272;2023-04-24T07:04:49;19.30;;;14.35;;
77430;SDS011;66498;48.564;19.272;2023-04-24T07:07:15;28.23;;;15.93;;
77430;SDS011;66498;48.564;19.272;2023-04-24T07:09:41;25.52;;;15.80;;
77430;SDS011;66498;48.564;19.272;2023-04-24T07:12:10;23.83;;;15.68;;
77430;SDS011;66498;48.564;19.272;2023-04-24T07:14:37;28.10;;;14.95;;
77430;SDS011;66498;48.564;19.272;2023-04-24T07:17:03;25.58;;;15.73;;
77430;SDS011;66498;48.564;19.272;2023-04-24T07:19:30;23.17;;;15.45;;
77430;SDS011;66498;48.564;19.272;2023-04-24T07:21:56;26.27;;;16.45;;
77430;SDS011;66498;48.564;19.272;2023-04-24T07:24:23;28.90;;;14.52;;
77430;SDS011;66498;48.564;19.272;2023-04-24T07:26:50;31.38;;;16.17;;
77430;SDS011;66498;48.564;19.272;2023-04-24T07:29:16;26.27;;;14.80;;
77430;SDS011;66498;48.564;19.272;2023-04-24T07:31:42;22.25;;;13.57;;
77430;SDS011;66498;48.564;19.272;2023-04-24T07:34:08;21.52;;;15.02;;
77430;SDS011;66498;48.564;19.272;2023-04-24T07:36:33;20.35;;;14.85;;
77430;SDS011;66498;48.564;19.272;2023-04-24T07:38:59;25.38;;;16.67;;
77430;SDS011;66498;48.564;19.272;2023-04-24T07:41:24;31.77;;;16.70;;
77430;SDS011;66498;48.564;19.272;2023-04-24T07:43:50;22.83;;;15.48;;
77430;SDS011;66498;48.564;19.272;2023-04-24T07:46:16;23.42;;;13.82;;
77430;SDS011;66498;48.564;19.272;2023-04-24T07:48:42;10.90;;;9.48;;
77430;SDS011;66498;48.564;19.272;2023-04-24T07:51:07;17.60;;;9.05;;
77430;SDS011;66498;48.564;19.272;2023-04-24T07:53:36;12.05;;;8.68;;
77430;SDS011;66498;48.564;19.272;2023-04-24T07:56:01;14.18;;;8.40;;
77430;SDS011;66498;48.564;19.272;2023-04-24T07:58:27;15.05;;;7.88;;
77430;SDS011;66498;48.564;19.272;2023-04-24T08:00:52;11.60;;;8.13;;
77430;SDS011;66498;48.564;19.272;2023-04-24T08:03:18;10.55;;;8.40;;
77430;SDS011;66498;48.564;19.272;2023-04-24T08:05:45;11.05;;;7.60;;
77430;SDS011;66498;48.564;19.272;2023-04-24T08:08:11;13.15;;;8.57;;
77430;SDS011;66498;48.564;19.272;2023-04-24T08:10:36;10.57;;;8.35;;
77430;SDS011;66498;48.564;19.272;2023-04-24T08:13:02;9.93;;;8.07;;
77430;SDS011;66498;48.564;19.272;2023-04-24T08:15:27;12.88;;;8.93;;
77430;SDS011;66498;48.564;19.272;2023-04-24T08:17:53;10.73;;;8.43;;
77430;SDS011;66498;48.564;19.272;2023-04-24T08:20:19;12.35;;;8.60;;
77430;SDS011;66498;48.564;19.272;2023-04-24T08:22:44;12.68;;;8.02;;
77430;SDS011;66498;48.564;19.272;2023-04-24T08:25:12;12.68;;;8.88;;
77430;SDS011;66498;48.564;19.272;2023-04-24T08:27:38;12.82;;;8.45;;
77430;SDS011;66498;48.564;19.272;2023-04-24T08:30:06;11.38;;;8.15;;
77430;SDS011;66498;48.564;19.272;2023-04-24T08:32:32;10.25;;;8.35;;
77430;SDS011;66498;48.564;19.272;2023-04-24T08:34:58;10.50;;;8.30;;
77430;SDS011;66498;48.564;19.272;2023-04-24T08:37:24;10.93;;;8.50;;
77430;SDS011;66498;48.564;19.272;2023-04-24T08:39:51;13.80;;;8.38;;
77430;SDS011;66498;48.564;19.272;2023-04-24T08:42:18;11.43;;;8.20;;
77430;SDS011;66498;48.564;19.272;2023-04-24T08:44:46;11.98;;;8.35;;
77430;SDS011;66498;48.564;19.272;2023-04-24T08:47:11;11.95;;;8.82;;
77430;SDS011;66498;48.564;19.272;2023-04-24T08:49:38;12.45;;;9.00;;
77430;SDS011;66498;48.564;19.272;2023-04-24T08:52:07;12.95;;;8.68;;
77430;SDS011;66498;48.564;19.272;2023-04-24T08:54:34;10.23;;;7.95;;
77430;SDS011;66498;48.564;19.272;2023-04-24T08:57:00;8.75;;;7.85;;
77430;SDS011;66498;48.564;19.272;2023-04-24T08:59:28;9.88;;;8.20;;
77430;SDS011;66498;48.564;19.272;2023-04-24T09:01:54;13.50;;;8.82;;
77430;SDS011;66498;48.564;19.272;2023-04-24T09:04:21;12.00;;;8.43;;
77430;SDS011;66498;48.564;19.272;2023-04-24T09:06:49;10.77;;;7.63;;
77430;SDS011;66498;48.564;19.272;2023-04-24T09:09:16;10.38;;;8.07;;
77430;SDS011;66498;48.564;19.272;2023-04-24T09:11:43;9.63;;;8.18;;
77430;SDS011;66498;48.564;19.272;2023-04-24T09:14:11;14.48;;;8.85;;
77430;SDS011;66498;48.564;19.272;2023-04-24T09:16:40;11.07;;;8.00;;
77430;SDS011;66498;48.564;19.272;2023-04-24T09:19:06;9.63;;;8.63;;
77430;SDS011;66498;48.564;19.272;2023-04-24T09:21:32;14.40;;;8.93;;
77430;SDS011;66498;48.564;19.272;2023-04-24T09:24:00;22.20;;;9.43;;
77430;SDS011;66498;48.564;19.272;2023-04-24T09:26:30;12.50;;;9.90;;
77430;SDS011;66498;48.564;19.272;2023-04-24T09:28:57;14.80;;;10.20;;
77430;SDS011;66498;48.564;19.272;2023-04-24T09:31:24;14.95;;;11.05;;
77430;SDS011;66498;48.564;19.272;2023-04-24T09:33:56;16.95;;;11.73;;
77430;SDS011;66498;48.564;19.272;2023-04-24T09:36:31;14.93;;;11.38;;
77430;SDS011;66498;48.564;19.272;2023-04-24T09:39:07;14.93;;;11.52;;
77430;SDS011;66498;48.564;19.272;2023-04-24T09:41:38;13.85;;;11.23;;
77430;SDS011;66498;48.564;19.272;2023-04-24T09:44:13;13.07;;;11.75;;
77430;SDS011;66498;48.564;19.272;2023-04-24T09:46:45;14.38;;;11.18;;
77430;SDS011;66498;48.564;19.272;2023-04-24T09:49:15;16.63;;;11.63;;
77430;SDS011;66498;48.564;19.272;2023-04-24T09:51:41;14.35;;;11.55;;
77430;SDS011;66498;48.564;19.272;2023-04-24T09:54:15;12.30;;;11.00;;
77430;SDS011;66498;48.564;19.272;2023-04-24T09:56:48;14.82;;;12.05;;
77430;SDS011;66498;48.564;19.272;2023-04-24T09:59:16;14.85;;;11.68;;
77430;SDS011;66498;48.564;19.272;2023-04-24T10:01:43;13.18;;;11.77;;
77430;SDS011;66498;48.564;19.272;2023-04-24T10:04:19;13.55;;;11.75;;
77430;SDS011;66498;48.564;19.272;2023-04-24T10:06:49;16.58;;;12.32;;
77430;SDS011;66498;48.564;19.272;2023-04-24T10:09:19;18.40;;;12.73;;
77430;SDS011;66498;48.564;19.272;2023-04-24T10:11:47;15.43;;;13.00;;
77430;SDS011;66498;48.564;19.272;2023-04-24T10:14:15;17.30;;;12.77;;
77430;SDS011;66498;48.564;19.272;2023-04-24T10:16:42;14.40;;;12.75;;
77430;SDS011;66498;48.564;19.272;2023-04-24T10:19:09;15.45;;;13.60;;
77430;SDS011;66498;48.564;19.272;2023-04-24T10:21:35;17.40;;;13.38;;
77430;SDS011;66498;48.564;19.272;2023-04-24T10:24:07;17.10;;;14.60;;
77430;SDS011;66498;48.564;19.272;2023-04-24T10:26:33;18.65;;;14.68;;
77430;SDS011;66498;48.564;19.272;2023-04-24T10:28:59;15.95;;;14.25;;
77430;SDS011;66498;48.564;19.272;2023-04-24T10:31:26;17.55;;;14.60;;
77430;SDS011;66498;48.564;19.272;2023-04-24T10:33:56;16.40;;;13.73;;
77430;SDS011;66498;48.564;19.272;2023-04-24T10:36:23;17.08;;;14.23;;
77430;SDS011;66498;48.564;19.272;2023-04-24T10:38:51;19.33;;;15.88;;
77430;SDS011;66498;48.564;19.272;2023-04-24T10:41:20;17.85;;;15.13;;
77430;SDS011;66498;48.564;19.272;2023-04-24T10:43:48;18.90;;;15.27;;
77430;SDS011;66498;48.564;19.272;2023-04-24T10:46:39;17.88;;;15.38;;
77430;SDS011;66498;48.564;19.272;2023-04-24T10:49:08;17.33;;;15.27;;
77430;SDS011;66498;48.564;19.272;2023-04-24T10:59:43;17.75;;;15.80;;
77430;SDS011;66498;48.564;19.272;2023-04-24T11:02:09;20.23;;;15.27;;
77430;SDS011;66498;48.564;19.272;2023-04-24T11:04:35;18.23;;;14.60;;
77430;SDS011;66498;48.564;19.272;2023-04-24T11:07:02;17.08;;;14.73;;
77430;SDS011;66498;48.564;19.272;2023-04-24T11:09:30;17.65;;;14.60;;
77430;SDS011;66498;48.564;19.272;2023-04-24T11:12:03;17.08;;;14.77;;
77430;SDS011;66498;48.564;19.272;2023-04-24T11:14:31;18.95;;;15.07;;
77430;SDS011;66498;48.564;19.272;2023-04-24T11:17:30;19.38;;;15.27;;
77430;SDS011;66498;48.564;19.272;2023-04-24T11:22:28;16.98;;;14.38;;
77430;SDS011;66498;48.564;19.272;2023-04-24T11:24:59;19.98;;;15.65;;
77430;SDS011;66498;48.564;19.272;2023-04-24T11:27:29;17.58;;;14.45;;
77430;SDS011;66498;48.564;19.272;2023-04-24T11:32:25;19.33;;;15.98;;
77430;SDS011;66498;48.564;19.272;2023-04-24T11:34:53;17.15;;;15.18;;
77430;SDS011;66498;48.564;19.272;2023-04-24T11:37:19;19.23;;;15.55;;
77430;SDS011;66498;48.564;19.272;2023-04-24T11:39:45;18.70;;;15.82;;
77430;SDS011;66498;48.564;19.272;2023-04-24T11:42:12;18.88;;;16.10;;
77430;SDS011;66498;48.564;19.272;2023-04-24T11:44:39;17.67;;;14.60;;
77430;SDS011;66498;48.564;19.272;2023-04-24T11:47:08;18.55;;;15.82;;
77430;SDS011;66498;48.564;19.272;2023-04-24T11:49:33;17.17;;;14.68;;
77430;SDS011;66498;48.564;19.272;2023-04-24T11:52:01;17.05;;;14.95;;
77430;SDS011;66498;48.564;19.272;2023-04-24T11:54:27;19.02;;;16.00;;
77430;SDS011;66498;48.564;19.272;2023-04-24T11:56:53;20.00;;;16.25;;
77430;SDS011;66498;48.564;19.272;2023-04-24T11:59:18;17.67;;;15.23;;
77430;SDS011;66498;48.564;19.272;2023-04-24T12:01:44;17.80;;;14.82;;
77430;SDS011;66498;48.564;19.272;2023-04-24T12:04:14;20.02;;;17.33;;
77430;SDS011;66498;48.564;19.272;2023-04-24T12:09:26;19.60;;;14.98;;
77430;SDS011;66498;48.564;19.272;2023-04-24T12:11:53;18.05;;;16.05;;
77430;SDS011;66498;48.564;19.272;2023-04-24T12:14:22;23.92;;;17.35;;
77430;SDS011;66498;48.564;19.272;2023-04-24T12:16:50;24.77;;;18.42;;
77430;SDS011;66498;48.564;19.272;2023-04-24T12:19:22;27.52;;;18.98;;
77430;SDS011;66498;48.564;19.272;2023-04-24T12:22:04;22.05;;;16.23;;
77430;SDS011;66498;48.564;19.272;2023-04-24T12:24:31;22.85;;;16.88;;
77430;SDS011;66498;48.564;19.272;2023-04-24T12:26:57;18.60;;;14.85;;
77430;SDS011;66498;48.564;19.272;2023-04-24T12:29:24;19.90;;;15.73;;
77430;SDS011;66498;48.564;19.272;2023-04-24T12:31:50;18.55;;;16.40;;
77430;SDS011;66498;48.564;19.272;2023-04-24T12:34:17;19.75;;;15.38;;
77430;SDS011;66498;48.564;19.272;2023-04-24T12:36:43;16.65;;;14.85;;
77430;SDS011;66498;48.564;19.272;2023-04-24T12:39:14;16.98;;;14.63;;
77430;SDS011;66498;48.564;19.272;2023-04-24T12:41:56;17.10;;;14.05;;
77430;SDS011;66498;48.564;19.272;2023-04-24T12:44:29;17.65;;;14.52;;
77430;SDS011;66498;48.564;19.272;2023-04-24T12:46:55;15.23;;;13.63;;
77430;SDS011;66498;48.564;19.272;2023-04-24T12:49:21;16.20;;;13.23;;
77430;SDS011;66498;48.564;19.272;2023-04-24T12:51:46;17.40;;;13.75;;
77430;SDS011;66498;48.564;19.272;2023-04-24T12:54:12;18.60;;;14.10;;
77430;SDS011;66498;48.564;19.272;2023-04-24T12:56:37;18.67;;;13.02;;
77430;SDS011;66498;48.564;19.272;2023-04-24T12:59:04;18.75;;;14.02;;
77430;SDS011;66498;48.564;19.272;2023-04-24T13:01:30;17.67;;;14.02;;
77430;SDS011;66498;48.564;19.272;2023-04-24T13:03:56;15.48;;;13.20;;
77430;SDS011;66498;48.564;19.272;2023-04-24T13:06:21;17.10;;;14.25;;
77430;SDS011;66498;48.564;19.272;2023-04-24T13:08:47;16.45;;;13.93;;
77430;SDS011;66498;48.564;19.272;2023-04-24T13:11:13;19.02;;;14.68;;
77430;SDS011;66498;48.564;19.272;2023-04-24T13:13:39;17.38;;;14.40;;
77430;SDS011;66498;48.564;19.272;2023-04-24T13:16:05;17.17;;;14.70;;
77430;SDS011;66498;48.564;19.272;2023-04-24T13:18:30;16.70;;;14.48;;
77430;SDS011;66498;48.564;19.272;2023-04-24T13:20:56;19.83;;;16.15;;
77430;SDS011;66498;48.564;19.272;2023-04-24T13:23:22;17.75;;;15.32;;
77430;SDS011;66498;48.564;19.272;2023-04-24T13:25:48;16.58;;;14.48;;
77430;SDS011;66498;48.564;19.272;2023-04-24T13:28:14;16.92;;;15.13;;
77430;SDS011;66498;48.564;19.272;2023-04-24T13:30:40;17.90;;;14.82;;
77430;SDS011;66498;48.564;19.272;2023-04-24T13:33:05;17.98;;;14.82;;
77430;SDS011;66498;48.564;19.272;2023-04-24T13:35:31;17.77;;;14.68;;
77430;SDS011;66498;48.564;19.272;2023-04-24T13:37:57;16.75;;;14.93;;
77430;SDS011;66498;48.564;19.272;2023-04-24T13:40:23;17.30;;;14.32;;
77430;SDS011;66498;48.564;19.272;2023-04-24T13:42:49;15.90;;;14.20;;
77430;SDS011;66498;48.564;19.272;2023-04-24T13:45:14;16.52;;;14.82;;
77430;SDS011;66498;48.564;19.272;2023-04-24T13:47:40;17.42;;;13.98;;
77430;SDS011;66498;48.564;19.272;2023-04-24T13:50:07;19.13;;;14.40;;
77430;SDS011;66498;48.564;19.272;2023-04-24T13:52:34;21.15;;;15.45;;
77430;SDS011;66498;48.564;19.272;2023-04-24T13:54:59;20.50;;;14.63;;
77430;SDS011;66498;48.564;19.272;2023-04-24T13:57:25;17.35;;;14.40;;
77430;SDS011;66498;48.564;19.272;2023-04-24T13:59:50;16.90;;;14.77;;
77430;SDS011;66498;48.564;19.272;2023-04-24T14:02:16;16.63;;;14.88;;
77430;SDS011;66498;48.564;19.272;2023-04-24T14:04:42;18.90;;;14.80;;
77430;SDS011;66498;48.564;19.272;2023-04-24T14:07:07;17.73;;;14.95;;
77430;SDS011;66498;48.564;19.272;2023-04-24T14:09:33;20.48;;;15.23;;
77430;SDS011;66498;48.564;19.272;2023-04-24T14:11:59;17.20;;;15.40;;
77430;SDS011;66498;48.564;19.272;2023-04-24T14:14:26;22.10;;;17.42;;
77430;SDS011;66498;48.564;19.272;2023-04-24T14:16:52;20.17;;;16.10;;
77430;SDS011;66498;48.564;19.272;2023-04-24T14:19:17;19.50;;;16.90;;
77430;SDS011;66498;48.564;19.272;2023-04-24T14:21:43;18.25;;;15.98;;
77430;SDS011;66498;48.564;19.272;2023-04-24T14:24:08;21.23;;;16.20;;